createdAt,value
2023-02-12T00:01:24.568Z,96271.38
2023-02-12T00:03:52.855Z,96275.84
2023-02-12T00:06:21.286Z,96272.03
2023-02-12T00:08:52.696Z,96273.66
2023-02-12T00:11:26.085Z,96266.34
2023-02-12T00:13:55.176Z,96268.69
2023-02-12T00:16:26.317Z,96252.66
2023-02-12T00:18:55.827Z,96245.00
2023-02-12T00:21:25.377Z,96236.53
2023-02-12T00:23:55.147Z,96234.38
2023-02-12T00:26:24.394Z,96225.41
2023-02-12T00:28:53.269Z,96223.88
2023-02-12T00:31:24.209Z,96235.84
2023-02-12T00:33:52.645Z,96241.47
2023-02-12T00:36:22.582Z,96242.50
2023-02-12T00:38:53.585Z,96142.47
2023-02-12T00:41:24.148Z,96242.56
2023-02-12T00:43:53.010Z,96254.13
2023-02-12T00:46:21.790Z,96252.06
2023-02-12T00:48:50.233Z,96247.19
2023-02-12T00:51:18.520Z,96240.41
2023-02-12T00:53:46.825Z,96246.78
2023-02-12T00:56:15.103Z,96248.41
2023-02-12T00:58:44.745Z,96232.03
2023-02-12T01:01:13.062Z,96236.56
2023-02-12T01:03:41.444Z,96227.63
2023-02-12T01:06:10.353Z,96222.69
2023-02-12T01:08:38.659Z,96200.63
2023-02-12T01:11:07.576Z,96207.72
2023-02-12T01:13:38.058Z,96225.97
2023-02-12T01:16:12.781Z,96221.94
2023-02-12T01:18:41.468Z,96221.25
2023-02-12T01:21:15.013Z,96227.28
2023-02-12T01:23:44.048Z,96215.91
2023-02-12T01:26:13.648Z,96174.81
2023-02-12T01:28:43.292Z,96216.94
2023-02-12T01:31:16.082Z,96201.41
2023-02-12T01:33:44.873Z,96186.84
2023-02-12T01:36:13.135Z,96186.72
2023-02-12T01:38:41.463Z,96176.75
2023-02-12T01:41:12.013Z,96169.84
2023-02-12T01:43:41.444Z,96172.69
2023-02-12T01:46:14.203Z,96186.81
2023-02-12T01:48:46.617Z,96109.34
2023-02-12T01:51:21.382Z,96179.28
2023-02-12T01:53:55.075Z,96177.50
2023-02-12T01:56:25.325Z,96179.28
2023-02-12T01:58:57.844Z,96171.34
2023-02-12T02:01:29.044Z,96183.38
2023-02-12T02:04:02.598Z,96190.81
2023-02-12T02:06:35.542Z,96188.84
2023-02-12T02:09:05.158Z,96186.72
2023-02-12T02:11:50.988Z,96172.88
2023-02-12T02:14:34.742Z,96172.78
2023-02-12T02:17:14.354Z,96128.69
2023-02-12T02:20:26.817Z,96169.81
2023-02-12T02:23:15.882Z,96144.69
2023-02-12T02:26:06.496Z,96161.56
2023-02-12T02:28:54.358Z,96156.53
2023-02-12T02:31:31.965Z,96165.06
2023-02-12T02:34:10.068Z,96167.50
2023-02-12T02:36:58.295Z,96183.09
2023-02-12T02:39:34.142Z,96174.09
2023-02-12T02:42:09.917Z,96118.53
2023-02-12T02:44:45.360Z,96183.16
2023-02-12T02:47:16.422Z,96177.34
2023-02-12T02:49:49.589Z,96131.28
2023-02-12T02:52:22.290Z,96174.38
2023-02-12T02:54:54.703Z,96164.97
2023-02-12T02:57:32.349Z,96172.66
2023-02-12T03:00:06.871Z,96173.41
2023-02-12T03:02:39.704Z,96131.06
2023-02-12T03:05:12.525Z,96189.34
2023-02-12T03:07:45.843Z,96185.78
2023-02-12T03:10:18.583Z,96120.16
2023-02-12T03:12:53.302Z,96103.16
2023-02-12T03:15:28.105Z,96137.38
2023-02-12T03:18:00.113Z,96176.47
2023-02-12T03:20:32.533Z,96172.59
2023-02-12T03:23:08.891Z,96173.06
2023-02-12T03:25:42.173Z,96177.41
2023-02-12T03:28:17.490Z,96131.72
2023-02-12T03:30:52.861Z,96117.78
2023-02-12T03:33:32.639Z,96170.88
2023-02-12T03:36:04.048Z,96181.47
2023-02-12T03:38:40.267Z,96167.50
2023-02-12T03:41:13.155Z,96171.88
2023-02-12T03:43:50.586Z,96176.34
2023-02-12T03:46:24.072Z,96169.00
2023-02-12T03:49:00.734Z,96157.50
2023-02-12T03:51:34.461Z,96154.28
2023-02-12T03:54:03.950Z,96163.34
2023-02-12T03:56:39.199Z,96162.91
2023-02-12T03:59:07.699Z,96152.22
2023-02-12T04:01:37.079Z,96149.50
2023-02-12T04:04:08.720Z,96148.19
2023-02-12T04:06:37.575Z,96149.69
2023-02-12T04:09:08.510Z,96147.66
2023-02-12T04:11:49.477Z,96142.97
2023-02-12T04:14:26.243Z,96142.59
2023-02-12T04:17:04.512Z,96127.56
2023-02-12T04:19:41.726Z,96138.53
2023-02-12T04:22:21.080Z,96138.56
2023-02-12T04:24:59.609Z,96136.63
2023-02-12T04:27:36.959Z,96143.41
2023-02-12T04:30:10.364Z,96072.69
2023-02-12T04:32:43.188Z,96083.44
2023-02-12T04:35:21.699Z,96130.75
2023-02-12T04:37:53.329Z,96148.09
2023-02-12T04:40:23.281Z,96158.66
2023-02-12T04:42:54.344Z,96151.66
2023-02-12T04:45:27.172Z,96109.00
2023-02-12T04:47:55.638Z,96146.94
2023-02-12T04:50:25.961Z,96072.59
2023-02-12T04:52:54.354Z,96136.94
2023-02-12T04:55:22.697Z,96135.31
2023-02-12T04:57:50.970Z,96130.78
2023-02-12T05:00:19.867Z,96071.09
2023-02-12T05:02:48.258Z,96124.59
2023-02-12T05:05:16.652Z,96121.56
2023-02-12T05:07:46.342Z,96122.41
2023-02-12T05:10:14.813Z,96147.34
2023-02-12T05:12:43.129Z,96157.88
2023-02-12T05:15:14.239Z,96160.63
2023-02-12T05:17:42.507Z,96171.00
2023-02-12T05:20:12.191Z,96168.72
2023-02-12T05:22:40.658Z,96177.72
2023-02-12T05:25:10.521Z,96176.13
2023-02-12T05:27:38.890Z,96178.47
2023-02-12T05:30:09.623Z,96174.66
2023-02-12T05:32:38.064Z,96160.66
2023-02-12T05:35:07.146Z,96123.94
2023-02-12T05:37:36.449Z,96155.53
2023-02-12T05:40:05.882Z,96165.25
2023-02-12T05:42:35.648Z,96180.38
2023-02-12T05:45:03.847Z,96172.94
2023-02-12T05:47:32.141Z,96172.44
2023-02-12T05:50:00.364Z,96173.25
2023-02-12T05:52:28.567Z,96182.06
2023-02-12T05:54:56.798Z,96190.75
2023-02-12T05:57:25.104Z,96193.44
2023-02-12T05:59:54.964Z,96194.78
2023-02-12T06:02:23.324Z,96198.13
2023-02-12T06:04:51.633Z,96184.16
2023-02-12T06:07:19.908Z,96200.72
2023-02-12T06:09:48.305Z,96195.84
2023-02-12T06:12:16.598Z,96188.94
2023-02-12T06:14:44.926Z,96097.44
2023-02-12T06:17:14.806Z,96008.69
2023-02-12T06:19:43.160Z,96187.03
2023-02-12T06:22:11.490Z,96197.75
2023-02-12T06:24:39.793Z,96199.56
2023-02-12T06:27:08.121Z,96203.50
2023-02-12T06:29:36.352Z,96201.16
2023-02-12T06:32:04.857Z,96209.41
2023-02-12T06:34:39.358Z,96210.94
2023-02-12T06:37:07.658Z,96183.00
2023-02-12T06:39:35.923Z,96228.56
2023-02-12T06:42:04.302Z,96230.72
2023-02-12T06:44:32.825Z,96226.09
2023-02-12T06:47:01.176Z,96233.28
2023-02-12T06:49:29.623Z,96231.94
2023-02-12T06:52:00.642Z,96232.78
2023-02-12T06:54:30.584Z,96228.97
2023-02-12T06:56:58.872Z,96232.38
2023-02-12T06:59:27.136Z,96184.66
2023-02-12T07:01:55.467Z,96202.97
2023-02-12T07:04:23.702Z,96097.88
2023-02-12T07:06:52.269Z,96225.97
2023-02-12T07:09:22.058Z,96227.47
2023-02-12T07:11:50.331Z,96223.69
2023-02-12T07:14:19.138Z,96230.59
2023-02-12T07:16:47.493Z,96229.03
2023-02-12T07:19:17.026Z,96228.47
2023-02-12T07:21:45.538Z,96245.25
2023-02-12T07:24:14.305Z,96246.84
2023-02-12T07:26:43.981Z,96246.03
2023-02-12T07:29:12.869Z,96249.28
2023-02-12T07:31:43.103Z,96190.03
2023-02-12T07:34:12.053Z,96256.69
2023-02-12T07:36:40.630Z,96246.41
2023-02-12T07:39:08.899Z,96241.53
2023-02-12T07:41:37.678Z,96250.75
2023-02-12T07:44:10.487Z,96244.69
2023-02-12T07:46:41.497Z,96244.09
2023-02-12T07:49:13.767Z,96224.63
2023-02-12T07:51:42.362Z,96242.44
2023-02-12T07:54:12.449Z,96236.06
2023-02-12T07:56:47.481Z,96238.31
2023-02-12T07:59:19.189Z,96166.19
2023-02-12T08:01:48.912Z,96241.44
2023-02-12T08:04:18.900Z,96248.09
2023-02-12T08:06:49.456Z,96246.16
2023-02-12T08:09:19.856Z,96090.19
2023-02-12T08:11:48.710Z,96252.22
2023-02-12T08:14:19.749Z,96255.50
2023-02-12T08:16:50.067Z,96249.94
2023-02-12T08:19:22.539Z,96262.19
2023-02-12T08:21:54.680Z,96257.53
2023-02-12T08:24:23.356Z,96258.63
2023-02-12T08:26:52.420Z,96241.47
2023-02-12T08:29:24.382Z,96241.03
2023-02-12T08:31:57.280Z,96184.88
2023-02-12T08:34:27.768Z,96231.25
2023-02-12T08:36:56.606Z,96244.72
2023-02-12T08:39:26.318Z,96241.28
2023-02-12T08:41:55.792Z,96238.00
2023-02-12T08:44:26.116Z,96239.81
2023-02-12T08:46:56.186Z,96247.44
2023-02-12T08:49:27.734Z,96221.31
2023-02-12T08:51:57.874Z,96247.34
2023-02-12T08:54:28.511Z,96243.13
2023-02-12T08:56:57.892Z,96245.53
2023-02-12T08:59:45.588Z,96236.22
2023-02-12T09:02:13.866Z,96238.69
2023-02-12T09:04:42.219Z,96197.69
2023-02-12T09:07:11.025Z,96236.00
2023-02-12T09:09:39.371Z,96236.53
2023-02-12T09:12:10.068Z,96191.38
2023-02-12T09:14:42.764Z,96243.69
2023-02-12T09:17:11.003Z,96236.63
2023-02-12T09:19:39.208Z,96237.75
2023-02-12T09:22:07.574Z,96247.78
2023-02-12T09:24:37.640Z,96244.81
2023-02-12T09:27:06.723Z,96247.25
2023-02-12T09:29:34.891Z,96246.59
2023-02-12T09:32:06.702Z,96237.25
2023-02-12T09:34:36.349Z,96248.88
2023-02-12T09:37:04.652Z,96249.91
2023-02-12T09:39:32.925Z,96247.38
2023-02-12T09:42:19.611Z,96238.38
2023-02-12T09:44:56.571Z,96253.63
2023-02-12T09:47:32.125Z,96212.38
2023-02-12T09:50:33.156Z,96199.06
2023-02-12T09:53:02.860Z,96253.25
2023-02-12T09:55:33.044Z,96246.13
2023-02-12T09:58:04.472Z,96243.38
2023-02-12T10:00:33.468Z,96240.75
2023-02-12T10:03:06.540Z,96234.25
2023-02-12T10:05:42.375Z,96236.44
2023-02-12T10:08:35.412Z,96238.78
2023-02-12T10:11:22.554Z,96232.47
2023-02-12T10:14:04.214Z,96120.59
2023-02-12T10:16:44.144Z,96207.00
2023-02-12T10:19:29.931Z,96207.50
2023-02-12T10:22:06.268Z,96210.19
2023-02-12T10:24:50.267Z,96176.22
2023-02-12T10:27:37.145Z,96207.09
2023-02-12T10:30:15.274Z,96202.91
2023-02-12T10:32:49.826Z,96212.06
2023-02-12T10:35:22.579Z,96209.34
2023-02-12T10:37:56.552Z,96202.78
2023-02-12T10:40:28.564Z,96205.72
2023-02-12T10:42:58.649Z,96202.94
2023-02-12T10:45:30.955Z,96204.91
2023-02-12T10:48:09.308Z,96205.81
2023-02-12T10:50:57.354Z,96202.50
2023-02-12T10:53:27.946Z,96206.97
2023-02-12T10:56:13.470Z,96131.81
2023-02-12T10:58:54.762Z,96206.38
2023-02-12T11:01:27.413Z,96117.81
2023-02-12T11:03:56.546Z,96193.97
2023-02-12T11:06:29.623Z,96188.91
2023-02-12T11:08:59.376Z,96163.38
2023-02-12T11:11:31.228Z,96003.63
2023-02-12T11:14:01.936Z,96168.81
2023-02-12T11:16:32.990Z,96179.38
2023-02-12T11:19:06.425Z,96170.44
2023-02-12T11:21:37.765Z,96186.28
2023-02-12T11:24:31.839Z,96114.69
2023-02-12T11:27:14.704Z,96172.97
2023-02-12T11:29:44.741Z,96171.13
2023-02-12T11:32:19.441Z,96167.63
2023-02-12T11:35:07.568Z,96164.81
2023-02-12T11:37:43.535Z,96166.06
2023-02-12T11:40:20.481Z,96118.31
2023-02-12T11:42:53.449Z,96167.72
2023-02-12T11:45:26.983Z,96143.66
2023-02-12T11:47:55.531Z,96164.88
2023-02-12T11:50:28.240Z,96145.16
2023-02-12T11:53:02.488Z,96159.84
2023-02-12T11:55:35.057Z,96147.44
2023-02-12T11:58:06.156Z,96152.31
2023-02-12T12:00:38.576Z,96143.66
2023-02-12T12:03:14.515Z,96141.03
2023-02-12T12:05:49.547Z,96155.88
2023-02-12T12:08:25.272Z,96155.22
2023-02-12T12:11:01.192Z,96150.13
2023-02-12T12:13:35.006Z,96154.41
2023-02-12T12:16:32.513Z,96149.78
2023-02-12T12:19:24.561Z,96148.31
2023-02-12T12:22:01.907Z,96154.16
2023-02-12T12:24:40.724Z,96152.66
2023-02-12T12:27:46.160Z,96157.25
2023-02-12T12:30:23.393Z,96156.16
2023-02-12T12:32:54.849Z,96156.63
2023-02-12T12:35:33.662Z,96153.06
2023-02-12T12:38:06.224Z,96128.16
2023-02-12T12:40:49.091Z,96144.03
2023-02-12T12:43:27.726Z,96143.22
2023-02-12T12:46:25.130Z,96145.09
2023-02-12T12:49:30.243Z,96163.16
2023-02-12T12:52:09.187Z,96169.53
2023-02-12T12:54:53.543Z,96173.31
2023-02-12T12:57:38.458Z,96172.81
2023-02-12T13:00:30.830Z,96159.28
2023-02-12T13:03:32.006Z,96113.16
2023-02-12T13:06:26.511Z,96155.09
2023-02-12T13:09:24.371Z,96161.44
2023-02-12T13:12:09.973Z,96146.44
2023-02-12T13:14:46.656Z,96156.59
2023-02-12T13:17:24.757Z,96132.47
2023-02-12T13:20:06.001Z,96159.50
2023-02-12T13:22:42.618Z,96148.19
2023-02-12T13:25:24.083Z,96168.78
2023-02-12T13:27:54.304Z,96178.13
2023-02-12T13:30:30.221Z,96167.47
2023-02-12T13:33:08.585Z,96175.66
2023-02-12T13:35:41.885Z,96179.41
2023-02-12T13:38:16.424Z,96181.84
2023-02-12T13:40:44.953Z,96182.69
2023-02-12T13:43:30.075Z,96167.69
2023-02-12T13:46:07.049Z,96193.75
2023-02-12T13:51:44.952Z,96173.25
2023-02-12T13:54:48.557Z,96196.19
2023-02-12T13:57:19.066Z,96182.84
2023-02-12T13:59:50.246Z,96205.44
2023-02-12T14:02:46.277Z,96203.84
2023-02-12T14:05:22.745Z,96209.91
2023-02-12T14:07:53.050Z,96218.81
2023-02-12T14:10:27.998Z,96205.19
2023-02-12T14:13:08.768Z,96197.84
2023-02-12T14:15:39.946Z,96175.78
2023-02-12T14:18:25.651Z,96223.63
2023-02-12T14:21:42.221Z,96229.31
2023-02-12T14:24:43.674Z,96230.84
2023-02-12T14:27:33.761Z,96235.28
2023-02-12T14:30:33.075Z,96207.47
2023-02-12T14:33:25.924Z,96237.44
2023-02-12T14:36:18.686Z,96242.00
2023-02-12T14:39:04.045Z,96243.84
2023-02-12T14:41:41.963Z,96010.97
2023-02-12T14:44:47.189Z,96242.69
2023-02-12T14:47:45.496Z,96250.31
2023-02-12T14:50:21.628Z,96244.03
2023-02-12T14:52:56.021Z,96251.25
2023-02-12T14:55:28.504Z,96248.34
2023-02-12T14:58:00.736Z,96254.06
2023-02-12T15:00:35.536Z,96266.09
2023-02-12T15:03:16.502Z,96250.66
2023-02-12T15:05:50.449Z,96270.84
2023-02-12T15:08:29.858Z,96268.69
2023-02-12T15:11:05.153Z,96280.19
2023-02-12T15:13:45.769Z,96278.59
2023-02-12T15:16:23.425Z,96284.94
2023-02-12T15:18:56.876Z,96287.50
2023-02-12T15:21:27.859Z,96304.28
2023-02-12T15:24:04.099Z,96302.38
2023-02-12T15:26:34.891Z,96315.69
2023-02-12T15:29:05.297Z,96318.41
2023-02-12T15:31:34.976Z,96248.25
2023-02-12T15:34:06.263Z,96333.50
2023-02-12T15:36:38.185Z,96337.56
2023-02-12T15:39:10.423Z,96314.91
2023-02-12T15:41:42.061Z,96295.50
2023-02-12T15:44:22.823Z,96321.22
2023-02-12T15:47:04.768Z,96344.91
2023-02-12T15:49:38.294Z,96360.91
2023-02-12T15:52:11.505Z,96363.66
2023-02-12T15:54:41.629Z,96378.88
2023-02-12T15:57:14.524Z,96389.81
2023-02-12T15:59:43.131Z,96355.63
2023-02-12T16:02:22.153Z,96391.31
2023-02-12T16:04:50.514Z,96402.94
2023-02-12T16:07:21.252Z,96374.47
2023-02-12T16:09:53.845Z,96417.81
2023-02-12T16:12:26.020Z,96425.38
2023-02-12T16:14:56.314Z,96432.53
2023-02-12T16:17:29.494Z,96430.09
2023-02-12T16:20:00.264Z,96444.09
2023-02-12T16:22:32.368Z,96448.03
2023-02-12T16:25:02.608Z,96465.56
2023-02-12T16:27:32.730Z,96475.94
2023-02-12T16:30:02.975Z,96429.84
2023-02-12T16:32:36.315Z,96425.97
2023-02-12T16:35:24.316Z,96482.69
2023-02-12T16:37:56.499Z,96493.25
2023-02-12T16:40:33.264Z,96476.97
2023-02-12T16:43:04.969Z,96502.69
2023-02-12T16:45:44.028Z,96499.50
2023-02-12T16:48:19.486Z,96537.63
2023-02-12T16:50:51.133Z,96517.47
2023-02-12T16:53:47.626Z,96526.56
2023-02-12T16:56:21.218Z,96534.00
2023-02-12T16:58:51.241Z,96544.22
2023-02-12T17:01:23.652Z,96526.09
2023-02-12T17:03:52.478Z,96545.66
2023-02-12T17:06:22.320Z,96479.00
2023-02-12T17:08:50.796Z,96558.75
2023-02-12T17:11:21.285Z,96539.72
2023-02-12T17:13:52.197Z,96534.09
2023-02-12T17:16:31.161Z,96568.75
2023-02-12T17:19:00.195Z,96575.06
2023-02-12T17:21:31.867Z,96570.41
2023-02-12T17:24:02.259Z,96586.06
2023-02-12T17:26:32.001Z,96585.72
2023-02-12T17:29:05.635Z,96472.59
2023-02-12T17:31:34.280Z,96597.16
2023-02-12T17:34:02.965Z,96605.59
2023-02-12T17:36:31.729Z,96611.81
2023-02-12T17:39:00.764Z,96620.28
2023-02-12T17:41:33.879Z,96628.06
2023-02-12T17:44:02.561Z,96624.66
2023-02-12T17:46:31.629Z,96633.53
2023-02-12T17:49:00.217Z,96636.13
2023-02-12T17:51:28.738Z,96568.97
2023-02-12T17:53:57.010Z,96629.94
2023-02-12T17:56:26.062Z,96637.41
2023-02-12T17:58:55.833Z,96640.59
2023-02-12T18:01:25.952Z,96649.47
2023-02-12T18:03:55.963Z,96647.97
2023-02-12T18:06:27.263Z,96645.81
2023-02-12T18:08:57.170Z,96564.34
2023-02-12T18:11:29.202Z,96662.44
2023-02-12T18:13:59.824Z,96668.00
2023-02-12T18:16:30.963Z,96680.38
2023-02-12T18:19:00.044Z,96677.38
2023-02-12T18:21:31.479Z,96649.28
2023-02-12T18:23:59.751Z,96687.66
2023-02-12T18:26:27.988Z,96681.19
2023-02-12T18:28:59.959Z,96688.66
2023-02-12T18:31:29.358Z,96688.50
2023-02-12T18:33:57.760Z,96697.44
2023-02-12T18:36:26.224Z,96621.66
2023-02-12T18:38:54.778Z,96702.88
2023-02-12T18:41:25.615Z,96712.63
2023-02-12T18:43:55.017Z,96723.69
2023-02-12T18:46:27.222Z,96731.56
2023-02-12T18:48:56.112Z,96722.94
2023-02-12T18:51:26.697Z,96700.50
2023-02-12T18:54:01.598Z,96728.44
2023-02-12T18:56:30.869Z,96733.31
2023-02-12T18:59:00.589Z,96680.44
2023-02-12T19:01:30.592Z,96751.00
2023-02-12T19:04:00.734Z,96744.28
2023-02-12T19:06:31.444Z,96758.59
2023-02-12T19:09:01.546Z,96754.97
2023-02-12T19:11:30.904Z,96753.34
2023-02-12T19:13:59.216Z,96770.06
2023-02-12T19:16:29.473Z,96776.47
2023-02-12T19:19:01.521Z,96780.59
2023-02-12T19:21:30.929Z,96781.28
2023-02-12T19:24:01.404Z,96755.97
2023-02-12T19:26:30.795Z,96788.25
2023-02-12T19:28:59.523Z,96783.09
2023-02-12T19:31:34.891Z,96788.94
2023-02-12T19:34:05.585Z,96795.16
2023-02-12T19:36:37.960Z,96784.81
2023-02-12T19:39:07.166Z,96807.34
2023-02-12T19:41:41.088Z,96808.59
2023-02-12T19:44:17.218Z,96796.75
2023-02-12T19:46:48.473Z,96778.88
2023-02-12T19:49:19.152Z,96811.16
2023-02-12T19:51:47.732Z,96810.34
2023-02-12T19:54:17.776Z,96817.84
2023-02-12T19:56:48.218Z,96818.72
2023-02-12T19:59:18.457Z,96821.66
2023-02-12T20:01:49.407Z,96822.34
2023-02-12T20:04:19.766Z,96830.44
2023-02-12T20:06:51.107Z,96813.59
2023-02-12T20:09:22.796Z,96824.19
2023-02-12T20:11:51.882Z,96825.78
2023-02-12T20:14:25.319Z,96752.22
2023-02-12T20:16:58.605Z,96821.41
2023-02-12T20:19:30.955Z,96809.03
2023-02-12T20:22:01.729Z,96791.63
2023-02-12T20:24:32.782Z,96813.75
2023-02-12T20:27:02.967Z,96814.31
2023-02-12T20:29:31.534Z,96754.44
2023-02-12T20:32:01.344Z,96784.78
2023-02-12T20:34:31.526Z,96811.50
2023-02-12T20:37:03.404Z,96822.81
2023-02-12T20:39:31.596Z,96801.97
2023-02-12T20:41:59.972Z,96823.84
2023-02-12T20:44:28.289Z,96828.28
2023-02-12T20:46:58.052Z,96830.75
2023-02-12T20:49:28.174Z,96830.91
2023-02-12T20:51:56.470Z,96816.69
2023-02-12T20:54:25.063Z,96839.06
2023-02-12T20:56:53.513Z,96835.41
2023-02-12T20:59:21.789Z,96826.31
2023-02-12T21:01:50.352Z,96816.72
2023-02-12T21:04:20.168Z,96826.03
2023-02-12T21:06:49.862Z,96819.16
2023-02-12T21:09:19.640Z,96772.41
2023-02-12T21:11:48.474Z,96832.41
2023-02-12T21:14:22.830Z,96647.69
2023-02-12T21:16:53.708Z,96829.09
2023-02-12T21:19:22.023Z,96828.66
2023-02-12T21:21:51.806Z,96844.25
2023-02-12T21:24:22.014Z,96837.94
2023-02-12T21:26:51.139Z,96847.66
2023-02-12T21:29:20.270Z,96845.06
2023-02-12T21:31:50.456Z,96776.47
2023-02-12T21:34:21.273Z,96853.41
2023-02-12T21:36:52.144Z,96853.25
2023-02-12T21:39:25.075Z,96864.44
2023-02-12T21:41:54.913Z,96692.25
2023-02-12T21:44:24.681Z,96872.50
2023-02-12T21:46:52.988Z,96876.69
2023-02-12T21:49:26.716Z,96880.56
2023-02-12T21:51:58.269Z,96872.16
2023-02-12T21:54:27.333Z,96873.25
2023-02-12T21:56:56.532Z,96892.22
2023-02-12T21:59:25.545Z,96897.84
2023-02-12T22:01:55.507Z,96905.00
2023-02-12T22:04:23.805Z,96908.69
2023-02-12T22:06:55.271Z,96907.81
2023-02-12T22:09:25.270Z,96910.50
2023-02-12T22:11:53.850Z,96916.31
2023-02-12T22:14:23.304Z,96910.66
2023-02-12T22:16:51.677Z,96918.78
2023-02-12T22:19:20.053Z,96922.59
2023-02-12T22:21:51.925Z,96919.34
2023-02-12T22:24:20.567Z,96871.88
2023-02-12T22:26:50.350Z,96905.47
2023-02-12T22:29:19.040Z,96925.75
2023-02-12T22:31:48.186Z,96939.72
2023-02-12T22:34:19.288Z,96942.59
2023-02-12T22:36:50.921Z,96909.59
2023-02-12T22:39:19.474Z,96931.66
2023-02-12T22:41:49.544Z,96940.19
2023-02-12T22:44:21.012Z,96941.22
2023-02-12T22:46:49.697Z,96947.66
2023-02-12T22:49:18.469Z,96942.59
2023-02-12T22:51:47.115Z,96951.16
2023-02-12T22:54:16.870Z,96907.63
2023-02-12T22:56:45.784Z,96953.88
2023-02-12T22:59:18.010Z,96952.13
2023-02-12T23:01:46.323Z,96954.91
2023-02-12T23:04:17.241Z,96944.25
2023-02-12T23:06:46.708Z,96887.00
2023-02-12T23:09:19.075Z,96951.16
2023-02-12T23:11:48.151Z,96851.09
2023-02-12T23:14:17.998Z,96939.75
2023-02-12T23:16:46.562Z,96945.03
2023-02-12T23:19:15.708Z,96951.53
2023-02-12T23:21:44.254Z,96936.22
2023-02-12T23:24:15.209Z,96934.06
2023-02-12T23:26:43.624Z,96943.25
2023-02-12T23:29:12.095Z,96939.59
2023-02-12T23:31:41.850Z,96944.88
2023-02-12T23:34:10.365Z,96945.44
2023-02-12T23:36:38.624Z,96938.97
2023-02-12T23:39:07.124Z,96941.06
2023-02-12T23:41:35.640Z,96924.91
2023-02-12T23:44:04.040Z,96917.59
2023-02-12T23:46:32.467Z,96930.97
2023-02-12T23:49:02.201Z,96933.16
2023-02-12T23:51:30.587Z,96931.66
2023-02-12T23:53:58.940Z,96943.25
2023-02-12T23:56:27.260Z,96943.47
2023-02-12T23:58:57.497Z,96939.44
